Terminal Aerodrome Forecast
Issued by NWS Duluth, MN

Home | Current Version | Previous Version | Text Only | Print | Product List | Glossary On
Versions: 1 2 3 4 5 6 7 8 9 10 11 12 13 14 15 16 17 18 19 20 21 22 23 24 25
000
FTUS43 KDLH 202300
TAFDLH
TAF
KDLH 202335Z 2100/2124 20012G17KT P6SM BKN045
     FM210200 21011KT P6SM SCT040
     FM210400 21012KT P6SM BKN040
      TEMPO 2105/2109 4SM TSRA BR BKN025CB
     FM210900 22009KT 5SM BR SCT015 BKN150
      TEMPO 2110/2114 1SM BR BKN008
     FM211600 20011KT P6SM BKN040=

USA.gov is the U.S. government's official web portal to all federal, state and local government web resources and services.